Date,TemperatureHighF,TemperatureAvgF,TemperatureLowF,DewpointHighF,DewpointAvgF,DewpointLowF,HumidityHigh,HumidityAvg,HumidityLow,PressureMaxIn,PressureMinIn,WindSpeedMaxMPH,WindSpeedAvgMPH,GustSpeedMaxMPH,PrecipitationSumIn
2013-6-1,94.1,74.7,53.2,57.9,50.7,46.2,85,48,23,29.87,29.70,12,2,19,0.00
2013-6-2,84.7,70.0,54.5,55.4,50.8,45.7,80,53,33,29.73,29.58,10,2,12,0.00
2013-6-3,69.6,59.7,50.5,54.3,51.5,47.5,91,75,56,29.83,29.60,11,2,12,0.00
2013-6-4,65.7,57.2,52.9,54.0,51.2,49.6,89,81,65,29.93,29.81,12,2,13,0.00
2013-6-5,72.0,58.1,51.6,56.1,51.3,48.7,92,80,56,29.96,29.87,13,2,14,0.00
2013-6-6,77.5,58.7,49.6,58.5,51.5,48.0,95,79,50,29.92,29.80,10,2,12,0.00
2013-6-7,94.5,68.5,50.0,62.4,54.5,48.6,95,67,28,29.84,29.65,7,1,9,0.00
2013-6-8,93.2,70.3,55.2,63.5,56.6,51.8,90,65,37,29.79,29.65,11,2,12,0.00
2013-6-9,65.5,58.3,55.0,55.4,53.6,51.6,93,85,70,29.86,29.73,10,3,13,0.00
2013-6-10,61.3,57.6,54.9,56.7,54.2,52.5,96,89,77,29.92,29.75,7,1,10,0.20
2013-6-11,77.0,64.0,50.7,59.7,54.1,49.1,95,72,47,29.94,29.82,10,1,12,0.00
2013-6-12,84.6,65.2,45.5,52.3,45.6,31.8,94,56,16,29.92,29.82,15,2,18,0.00
2013-6-13,85.5,66.1,44.6,48.7,44.7,41.2,89,50,22,30.03,29.89,13,2,16,0.00
2013-6-14,87.1,68.6,50.7,50.2,46.6,36.5,82,51,18,29.95,29.75,12,2,16,0.00
2013-6-15,80.6,62.6,46.8,55.0,49.6,43.0,88,65,38,29.92,29.76,12,1,13,0.00
2013-6-16,86.5,67.0,46.9,55.9,49.3,44.1,91,58,30,30.00,29.87,14,2,17,0.00
2013-6-17,82.0,65.3,48.4,57.2,51.3,44.4,89,63,40,30.02,29.93,16,2,18,0.00
2013-6-18,74.1,62.3,48.6,52.0,48.2,41.0,93,63,32,29.96,29.87,17,4,20,0.00
2013-6-19,79.2,64.1,47.1,49.3,46.1,40.8,88,56,27,30.00,29.91,16,2,17,0.00
2013-6-20,83.5,66.4,46.8,49.3,45.3,40.1,88,51,24,29.95,29.83,15,2,19,0.00
2013-6-21,85.5,69.3,49.5,52.2,47.8,43.9,84,51,24,29.91,29.81,13,2,14,0.00
2013-6-22,89.4,72.1,51.3,53.1,49.1,44.4,81,48,23,29.86,29.75,16,2,19,0.00
2013-6-23,74.1,62.1,56.7,60.3,56.1,49.8,92,81,60,29.80,29.75,12,2,13,0.00
2013-6-24,63.1,58.5,55.9,58.1,55.7,53.6,96,91,82,29.85,29.73,7,1,10,0.15
2013-6-25,64.2,61.6,58.3,63.1,60.5,56.5,97,96,94,29.93,29.83,7,2,12,1.50
2013-6-26,80.6,68.6,61.0,65.7,62.5,59.0,98,83,56,30.01,29.91,7,1,11,0.06
2013-6-27,91.8,72.1,55.9,65.7,60.5,54.9,97,71,36,30.03,29.94,9,1,12,0.00
2013-6-28,97.9,79.8,59.0,68.9,62.6,56.7,95,60,33,29.97,29.81,10,1,11,0.00
2013-6-29,101.3,82.3,61.2,64.4,60.8,55.9,89,53,27,29.86,29.71,12,1,13,0.00
2013-6-30,94.8,77.4,60.3,63.3,59.8,55.4,89,58,32,29.77,29.67,8,1,11,0.00